Nova Olimpia, Brazil
Current Conditions -  °F | °C
As of 7:00 PM on Friday 24 Oct 2014 (Local Time) from SBCA Reporting Station
Thunderstorm Thunderstorm  
Wind Chill: 73°   Ceiling: Unl
Heat Index: 73°   Visibility: 6mi
Dew Point: 66°   Wind: 8mph
Humidity: 78%   Direction: 90°E
Pressure: NA   Gusts: NA
Location:  23.47°S, 53.09°W
Report Text: SBCA 242100Z 09007KT 9999 -TSRA FEW030 FEW040CB SCT080 23/19 Q1014
Loading
Personal Weather Stations






























Interactive Weather Map
Tropical Storm Tracking
New forecast layout! Learn more

10-Day Weather Forecast

Advertisements
Track Severe Weather on mobile